createdAt,value
2023-05-07T00:00:02.109Z,17.00
2023-05-07T00:02:29.042Z,16.90
2023-05-07T00:04:57.220Z,16.90
2023-05-07T00:07:24.291Z,16.90
2023-05-07T00:09:52.712Z,16.80
2023-05-07T00:12:19.431Z,16.90
2023-05-07T00:14:46.496Z,16.90
2023-05-07T00:17:13.257Z,17.00
2023-05-07T00:19:40.045Z,16.90
2023-05-07T00:22:08.948Z,16.90
2023-05-07T00:24:35.725Z,16.90
2023-05-07T00:27:02.439Z,16.90
2023-05-07T00:29:29.110Z,16.90
2023-05-07T00:31:55.944Z,16.90
2023-05-07T00:34:23.328Z,16.90
2023-05-07T00:36:50.109Z,16.80
2023-05-07T00:39:16.842Z,16.70
2023-05-07T00:41:43.604Z,16.80
2023-05-07T00:44:10.378Z,16.80
2023-05-07T00:46:37.352Z,16.70
2023-05-07T00:49:06.055Z,16.80
2023-05-07T00:51:34.915Z,16.80
2023-05-07T00:54:04.740Z,16.80
2023-05-07T00:56:32.955Z,16.80
2023-05-07T00:59:00.053Z,16.80
2023-05-07T01:01:27.406Z,16.80
2023-05-07T01:03:54.739Z,16.80
2023-05-07T01:06:24.906Z,16.80
2023-05-07T01:08:54.030Z,16.80
2023-05-07T01:11:22.169Z,16.80
2023-05-07T01:13:51.336Z,16.80
2023-05-07T01:16:18.385Z,16.80
2023-05-07T01:18:48.465Z,16.70
2023-05-07T01:21:18.805Z,16.80
2023-05-07T01:23:47.026Z,16.70
2023-05-07T01:26:13.867Z,16.70
2023-05-07T01:28:40.597Z,16.70
2023-05-07T01:31:14.794Z,16.70
2023-05-07T01:33:46.681Z,16.80
2023-05-07T01:36:15.025Z,16.80
2023-05-07T01:38:43.678Z,16.80
2023-05-07T01:41:11.101Z,16.80
2023-05-07T01:43:38.055Z,16.70
2023-05-07T01:46:06.010Z,16.70
2023-05-07T01:48:34.560Z,16.60
2023-05-07T01:51:02.978Z,16.70
2023-05-07T01:53:29.733Z,16.70
2023-05-07T01:55:56.424Z,16.70
2023-05-07T01:58:23.249Z,16.60
2023-05-07T02:00:50.067Z,16.60
2023-05-07T02:03:17.240Z,16.60
2023-05-07T02:05:44.040Z,16.50
2023-05-07T02:08:10.951Z,16.50
2023-05-07T02:10:37.650Z,16.60
2023-05-07T02:13:04.482Z,16.60
2023-05-07T02:15:31.223Z,16.70
2023-05-07T02:18:08.174Z,16.70
2023-05-07T02:20:34.903Z,16.60
2023-05-07T02:23:01.709Z,16.50
2023-05-07T02:25:29.185Z,16.40
2023-05-07T02:27:56.006Z,16.50
2023-05-07T02:30:22.814Z,16.50
2023-05-07T02:32:49.551Z,16.50
2023-05-07T02:35:16.471Z,16.40
2023-05-07T02:37:43.488Z,16.50
2023-05-07T02:40:12.438Z,16.50
2023-05-07T02:42:39.497Z,16.50
2023-05-07T02:45:06.996Z,16.50
2023-05-07T02:47:33.927Z,16.50
2023-05-07T02:50:00.690Z,16.50
2023-05-07T02:52:27.460Z,16.50
2023-05-07T02:54:54.201Z,16.40
2023-05-07T02:57:20.891Z,16.60
2023-05-07T02:59:47.672Z,16.50
2023-05-07T03:02:16.762Z,16.50
2023-05-07T03:04:43.557Z,16.50
2023-05-07T03:07:10.296Z,16.40
2023-05-07T03:09:36.965Z,16.40
2023-05-07T03:12:03.851Z,16.30
2023-05-07T03:14:33.677Z,16.30
2023-05-07T03:17:00.429Z,16.20
2023-05-07T03:19:27.230Z,16.30
2023-05-07T03:21:54.034Z,16.30
2023-05-07T03:24:21.259Z,16.20
2023-05-07T03:26:48.192Z,16.30
2023-05-07T03:29:14.897Z,16.30
2023-05-07T03:31:43.999Z,16.20
2023-05-07T03:34:10.780Z,16.20
2023-05-07T03:36:37.528Z,16.20
2023-05-07T03:39:04.225Z,16.20
2023-05-07T03:41:31.043Z,16.20
2023-05-07T03:43:57.755Z,16.20
2023-05-07T03:46:27.117Z,16.20
2023-05-07T03:48:53.961Z,16.10
2023-05-07T03:51:20.738Z,16.10
2023-05-07T03:53:47.478Z,16.00
2023-05-07T03:56:14.221Z,16.00
2023-05-07T03:58:41.298Z,16.00
2023-05-07T04:01:08.436Z,16.00
2023-05-07T04:03:35.310Z,16.10
2023-05-07T04:06:02.186Z,16.00
2023-05-07T04:08:28.913Z,16.00
2023-05-07T04:11:01.355Z,16.00
2023-05-07T04:13:28.679Z,16.00
2023-05-07T04:15:56.466Z,16.00
2023-05-07T04:18:23.286Z,16.00
2023-05-07T04:20:52.884Z,16.00
2023-05-07T04:23:21.120Z,16.10
2023-05-07T04:25:47.879Z,16.10
2023-05-07T04:28:14.908Z,16.00
2023-05-07T04:30:44.854Z,16.00
2023-05-07T04:33:12.542Z,16.00
2023-05-07T04:35:39.302Z,16.10
2023-05-07T04:38:06.447Z,16.10
2023-05-07T04:40:36.806Z,16.00
2023-05-07T04:43:03.628Z,16.00
2023-05-07T04:45:30.373Z,16.10
2023-05-07T04:47:57.077Z,16.10
2023-05-07T04:50:25.403Z,16.00
2023-05-07T04:52:52.143Z,16.10
2023-05-07T04:55:19.020Z,16.10
2023-05-07T04:57:46.584Z,16.10
2023-05-07T05:00:17.436Z,16.10
2023-05-07T05:02:44.243Z,16.10
2023-05-07T05:05:11.048Z,16.20
2023-05-07T05:07:38.260Z,16.10
2023-05-07T05:10:07.590Z,16.10
2023-05-07T05:12:34.473Z,16.10
2023-05-07T05:15:02.352Z,16.10
2023-05-07T05:17:29.088Z,16.10
2023-05-07T05:19:55.829Z,16.10
2023-05-07T05:22:22.656Z,16.20
2023-05-07T05:24:49.409Z,16.20
2023-05-07T05:27:16.212Z,16.10
2023-05-07T05:29:42.889Z,16.10
2023-05-07T05:32:09.629Z,16.10
2023-05-07T05:34:36.308Z,16.10
2023-05-07T05:37:03.190Z,16.10
2023-05-07T05:39:30.009Z,16.10
2023-05-07T05:41:56.752Z,16.20
2023-05-07T05:44:23.661Z,16.20
2023-05-07T05:46:51.346Z,16.20
2023-05-07T05:49:18.102Z,16.20
2023-05-07T05:51:44.922Z,16.20
2023-05-07T05:54:11.634Z,16.20
2023-05-07T05:56:38.942Z,16.10
2023-05-07T05:59:05.848Z,16.20
2023-05-07T06:01:34.985Z,16.20
2023-05-07T06:04:01.697Z,16.20
2023-05-07T06:06:28.961Z,16.10
2023-05-07T06:08:55.778Z,16.20
2023-05-07T06:11:22.534Z,16.20
2023-05-07T06:13:49.204Z,16.10
2023-05-07T06:16:16.324Z,16.10
2023-05-07T06:18:43.034Z,16.00
2023-05-07T06:21:11.056Z,16.10
2023-05-07T06:23:41.868Z,16.10
2023-05-07T06:26:08.754Z,16.20
2023-05-07T06:28:38.157Z,16.20
2023-05-07T06:31:17.508Z,16.20
2023-05-07T06:33:45.679Z,16.20
2023-05-07T06:36:13.918Z,16.30
2023-05-07T06:38:40.682Z,16.40
2023-05-07T06:41:10.095Z,16.50
2023-05-07T06:43:36.948Z,16.50
2023-05-07T06:46:03.807Z,16.50
2023-05-07T06:48:30.592Z,16.50
2023-05-07T06:50:58.523Z,16.60
2023-05-07T06:53:26.767Z,16.60
2023-05-07T06:55:53.573Z,16.60
2023-05-07T06:58:21.405Z,16.60
2023-05-07T07:00:48.160Z,16.80
2023-05-07T07:03:15.373Z,16.80
2023-05-07T07:05:43.363Z,16.90
2023-05-07T07:08:11.290Z,16.90
2023-05-07T07:10:38.198Z,16.90
2023-05-07T07:13:05.017Z,16.90
2023-05-07T07:15:31.826Z,17.00
2023-05-07T07:17:58.621Z,17.10
2023-05-07T07:20:25.438Z,17.10
2023-05-07T07:22:55.370Z,17.20
2023-05-07T07:25:22.119Z,17.20
2023-05-07T07:27:48.974Z,17.30
2023-05-07T07:30:16.120Z,17.40
2023-05-07T07:32:43.712Z,17.40
2023-05-07T07:35:11.703Z,17.60
2023-05-07T07:37:38.498Z,17.50
2023-05-07T07:40:06.252Z,17.50
2023-05-07T07:42:33.010Z,17.60
2023-05-07T07:45:02.335Z,17.60
2023-05-07T07:47:29.146Z,17.70
2023-05-07T07:49:56.433Z,17.80
2023-05-07T07:52:23.174Z,17.70
2023-05-07T07:54:49.906Z,17.60
2023-05-07T07:57:16.594Z,17.70
2023-05-07T07:59:44.627Z,17.80
2023-05-07T08:02:11.505Z,17.80
2023-05-07T08:04:38.759Z,17.80
2023-05-07T08:07:06.787Z,17.90
2023-05-07T08:09:33.481Z,17.90
2023-05-07T08:12:00.509Z,17.90
2023-05-07T08:14:29.196Z,17.90
2023-05-07T08:16:57.126Z,17.80
2023-05-07T08:19:24.037Z,17.90
2023-05-07T08:21:51.459Z,17.90
2023-05-07T08:24:19.111Z,18.00
2023-05-07T08:26:47.613Z,18.00
2023-05-07T08:29:14.625Z,18.00
2023-05-07T08:31:41.395Z,18.10
2023-05-07T08:34:09.940Z,18.00
2023-05-07T08:36:37.121Z,18.00
2023-05-07T08:39:03.916Z,18.00
2023-05-07T08:41:31.510Z,18.10
2023-05-07T08:44:02.639Z,18.30
2023-05-07T08:46:33.560Z,18.30
2023-05-07T08:49:00.753Z,18.30
2023-05-07T08:51:28.515Z,18.30
2023-05-07T08:53:55.365Z,18.40
2023-05-07T08:56:22.767Z,18.40
2023-05-07T08:58:50.052Z,18.50
2023-05-07T09:01:18.225Z,18.50
2023-05-07T09:03:51.154Z,18.50
2023-05-07T09:06:18.490Z,18.60
2023-05-07T09:08:55.989Z,18.60
2023-05-07T09:11:24.531Z,18.70
2023-05-07T09:14:00.610Z,18.80
2023-05-07T09:16:29.297Z,18.90
2023-05-07T09:18:58.450Z,18.90
2023-05-07T09:21:25.460Z,19.00
2023-05-07T09:23:54.789Z,19.00
2023-05-07T09:26:26.147Z,19.10
2023-05-07T09:28:53.256Z,19.00
2023-05-07T09:31:21.616Z,19.00
2023-05-07T09:33:48.585Z,19.00
2023-05-07T09:36:16.068Z,19.00
2023-05-07T09:38:43.456Z,19.10
2023-05-07T09:41:13.271Z,19.10
2023-05-07T09:43:41.899Z,19.10
2023-05-07T09:46:17.728Z,19.10
2023-05-07T09:49:11.118Z,19.30
2023-05-07T09:51:53.799Z,19.40
2023-05-07T09:54:24.696Z,19.50
2023-05-07T09:57:13.268Z,19.60
2023-05-07T09:59:45.737Z,19.70
2023-05-07T10:02:18.303Z,19.70
2023-05-07T10:04:46.319Z,19.80
2023-05-07T10:07:14.666Z,19.90
2023-05-07T10:09:44.274Z,20.00
2023-05-07T10:12:11.314Z,20.00
2023-05-07T10:14:38.609Z,20.10
2023-05-07T10:17:06.930Z,20.10
2023-05-07T10:19:35.403Z,20.20
2023-05-07T10:22:10.970Z,20.20
2023-05-07T10:24:38.878Z,20.30
2023-05-07T10:27:13.444Z,20.40
2023-05-07T10:30:44.220Z,20.40
2023-05-07T10:33:16.061Z,20.70
2023-05-07T10:35:49.990Z,20.80
2023-05-07T10:38:17.120Z,20.90
2023-05-07T10:40:47.928Z,20.90
2023-05-07T10:43:15.322Z,21.10
2023-05-07T10:46:44.783Z,21.10
2023-05-07T10:49:12.399Z,21.20
2023-05-07T10:51:41.187Z,21.40
2023-05-07T10:54:18.529Z,21.40
2023-05-07T10:56:45.548Z,21.50
2023-05-07T10:59:42.996Z,21.60
2023-05-07T11:02:12.141Z,21.70
2023-05-07T11:04:40.009Z,21.70
2023-05-07T11:07:10.098Z,21.60
2023-05-07T11:10:07.392Z,21.80
2023-05-07T11:12:37.331Z,21.80
2023-05-07T11:15:06.390Z,21.80
2023-05-07T11:17:37.434Z,21.90
2023-05-07T11:20:05.568Z,22.00
2023-05-07T11:22:32.608Z,22.00
2023-05-07T11:25:07.376Z,22.20
2023-05-07T11:27:35.073Z,22.30
2023-05-07T11:30:02.137Z,22.20
2023-05-07T11:32:32.053Z,22.40
2023-05-07T11:35:01.968Z,22.40
2023-05-07T11:37:30.817Z,22.40
2023-05-07T11:40:11.836Z,22.60
2023-05-07T11:42:42.462Z,22.70
2023-05-07T11:45:10.467Z,22.90
2023-05-07T11:47:37.857Z,23.00
2023-05-07T11:50:11.593Z,23.10
2023-05-07T11:52:40.060Z,23.10
2023-05-07T11:55:10.056Z,23.30
2023-05-07T11:57:36.840Z,23.20
2023-05-07T12:00:06.187Z,23.20
2023-05-07T12:02:33.374Z,23.20
2023-05-07T12:05:02.178Z,23.20
2023-05-07T12:07:29.018Z,23.20
2023-05-07T12:09:56.010Z,23.10
2023-05-07T12:12:22.890Z,23.10
2023-05-07T12:14:49.619Z,23.00
2023-05-07T12:17:18.082Z,23.10
2023-05-07T12:19:46.718Z,22.90
2023-05-07T12:22:14.651Z,22.90
2023-05-07T12:25:07.941Z,23.00
2023-05-07T12:27:42.321Z,23.20
2023-05-07T12:30:12.338Z,23.30
2023-05-07T12:32:39.275Z,23.50
2023-05-07T12:35:08.248Z,23.40
2023-05-07T12:37:37.197Z,23.40
2023-05-07T12:40:10.610Z,23.30
2023-05-07T12:42:39.448Z,23.20
2023-05-07T12:45:18.108Z,23.20
2023-05-07T12:47:48.687Z,23.20
2023-05-07T12:50:17.513Z,23.00
2023-05-07T12:52:46.844Z,23.00
2023-05-07T12:55:16.652Z,23.10
2023-05-07T12:57:53.824Z,23.10
2023-05-07T13:00:36.866Z,23.10
2023-05-07T13:03:03.911Z,23.10
2023-05-07T13:05:30.794Z,23.20
2023-05-07T13:07:58.544Z,23.20
2023-05-07T13:10:26.230Z,23.10
2023-05-07T13:12:53.543Z,23.10
2023-05-07T13:15:21.287Z,23.10
2023-05-07T13:17:48.341Z,23.10
2023-05-07T13:20:15.201Z,23.20
2023-05-07T13:22:42.245Z,23.20
2023-05-07T13:25:09.923Z,23.20
2023-05-07T13:27:37.830Z,23.30
2023-05-07T13:30:06.622Z,23.30
2023-05-07T13:32:36.103Z,23.30
2023-05-07T13:35:02.995Z,23.30
2023-05-07T13:37:29.827Z,23.30
2023-05-07T13:39:56.574Z,23.40
2023-05-07T13:42:23.415Z,23.50
2023-05-07T13:44:50.152Z,23.60
2023-05-07T13:47:17.672Z,23.60
2023-05-07T13:49:44.426Z,23.50
2023-05-07T13:52:12.018Z,23.50
2023-05-07T13:54:39.121Z,23.70
2023-05-07T13:57:05.904Z,23.70
2023-05-07T13:59:32.742Z,23.80
2023-05-07T14:01:59.461Z,23.60
2023-05-07T14:04:26.795Z,23.60
2023-05-07T14:06:53.471Z,23.50
2023-05-07T14:09:20.446Z,23.40
2023-05-07T14:11:48.578Z,23.50
2023-05-07T14:14:15.439Z,23.20
2023-05-07T14:16:42.226Z,23.20
2023-05-07T14:19:09.048Z,23.10
2023-05-07T14:21:35.773Z,23.10
2023-05-07T14:24:02.562Z,23.20
2023-05-07T14:26:30.139Z,23.10
2023-05-07T14:28:59.547Z,23.10
2023-05-07T14:31:27.044Z,23.00
2023-05-07T14:33:54.470Z,22.90
2023-05-07T14:36:22.171Z,23.00
2023-05-07T14:38:49.963Z,22.80
2023-05-07T14:41:17.032Z,22.40
2023-05-07T14:43:44.848Z,22.20
2023-05-07T14:46:11.721Z,22.00
2023-05-07T14:48:38.596Z,21.60
2023-05-07T14:51:07.447Z,21.50
2023-05-07T14:53:34.175Z,21.50
2023-05-07T14:56:01.296Z,20.90
2023-05-07T14:58:28.081Z,20.10
2023-05-07T15:00:54.882Z,19.50
2023-05-07T15:03:22.891Z,19.20
2023-05-07T15:05:52.311Z,18.80
2023-05-07T15:08:19.582Z,18.70
2023-05-07T15:10:46.528Z,18.70
2023-05-07T15:13:15.980Z,18.70
2023-05-07T15:15:47.148Z,18.50
2023-05-07T15:18:15.518Z,18.40
2023-05-07T15:20:43.570Z,18.40
2023-05-07T15:23:10.977Z,18.40
2023-05-07T15:25:37.970Z,18.50
2023-05-07T15:28:04.871Z,18.40
2023-05-07T15:30:31.750Z,18.10
2023-05-07T15:32:58.511Z,17.60
2023-05-07T15:35:26.603Z,17.50
2023-05-07T15:37:54.104Z,17.20
2023-05-07T15:40:21.132Z,17.20
2023-05-07T15:42:48.234Z,17.00
2023-05-07T15:45:15.374Z,17.00
2023-05-07T15:47:42.145Z,17.00
2023-05-07T15:50:09.488Z,17.10
2023-05-07T15:52:36.336Z,17.10
2023-05-07T15:55:03.719Z,17.10
2023-05-07T15:57:32.517Z,17.10
2023-05-07T15:59:59.345Z,17.20
2023-05-07T16:02:26.729Z,17.30
2023-05-07T16:04:53.555Z,17.50
2023-05-07T16:07:20.528Z,17.60
2023-05-07T16:09:47.352Z,17.60
2023-05-07T16:12:14.178Z,17.60
2023-05-07T16:14:41.099Z,17.60
2023-05-07T16:17:08.437Z,17.60
2023-05-07T16:19:35.953Z,17.60
2023-05-07T16:22:02.724Z,17.60
2023-05-07T16:24:29.500Z,17.50
2023-05-07T16:26:56.525Z,17.70
2023-05-07T16:29:23.620Z,17.80
2023-05-07T16:31:50.736Z,18.00
2023-05-07T16:34:17.540Z,18.00
2023-05-07T16:36:44.287Z,18.10
2023-05-07T16:39:11.201Z,18.30
2023-05-07T16:41:38.286Z,18.40
2023-05-07T16:44:05.121Z,18.50
2023-05-07T16:46:32.289Z,18.70
2023-05-07T16:48:59.046Z,18.80
2023-05-07T16:51:25.830Z,18.60
2023-05-07T16:53:52.697Z,18.60
2023-05-07T16:56:19.741Z,18.40
2023-05-07T16:58:46.464Z,18.50
2023-05-07T17:01:15.139Z,18.70
2023-05-07T17:03:42.019Z,18.90
2023-05-07T17:06:16.283Z,19.00
2023-05-07T17:08:43.377Z,19.10
2023-05-07T17:11:10.479Z,19.20
2023-05-07T17:13:37.286Z,19.30
2023-05-07T17:16:06.246Z,19.30
2023-05-07T17:18:33.173Z,19.40
2023-05-07T17:20:59.980Z,19.30
2023-05-07T17:23:26.806Z,19.20
2023-05-07T17:25:53.581Z,19.30
2023-05-07T17:28:20.362Z,19.30
2023-05-07T17:30:48.053Z,19.50
2023-05-07T17:33:20.903Z,19.40
2023-05-07T17:35:49.414Z,19.60
2023-05-07T17:38:17.310Z,19.70
2023-05-07T17:40:44.060Z,19.80
2023-05-07T17:43:10.817Z,19.80
2023-05-07T17:45:37.674Z,19.60
2023-05-07T17:48:05.472Z,19.60
2023-05-07T17:50:32.509Z,19.50
2023-05-07T17:52:59.445Z,19.60
2023-05-07T17:55:26.496Z,19.60
2023-05-07T17:57:53.218Z,19.60
2023-05-07T18:00:20.264Z,19.60
2023-05-07T18:02:47.137Z,19.60
2023-05-07T18:05:14.034Z,19.60
2023-05-07T18:07:41.138Z,19.70
2023-05-07T18:10:08.471Z,19.60
2023-05-07T18:12:36.585Z,19.50
2023-05-07T18:15:03.743Z,19.50
2023-05-07T18:17:30.574Z,19.60
2023-05-07T18:19:59.666Z,19.60
2023-05-07T18:22:26.383Z,19.50
2023-05-07T18:24:53.155Z,19.50
2023-05-07T18:27:19.886Z,19.50
2023-05-07T18:29:46.756Z,19.50
2023-05-07T18:32:13.959Z,19.50
2023-05-07T18:34:41.209Z,19.40
2023-05-07T18:37:09.047Z,19.40
2023-05-07T18:39:36.315Z,19.30
2023-05-07T18:42:05.229Z,19.40
2023-05-07T18:44:35.322Z,19.30
2023-05-07T18:47:02.031Z,19.30
2023-05-07T18:49:28.779Z,19.30
2023-05-07T18:51:56.544Z,19.30
2023-05-07T18:54:23.397Z,19.20
2023-05-07T18:56:50.481Z,19.20
2023-05-07T18:59:17.331Z,19.10
2023-05-07T19:01:44.262Z,19.20
2023-05-07T19:04:11.219Z,19.10
2023-05-07T19:06:39.509Z,19.00
2023-05-07T19:09:06.266Z,19.00
2023-05-07T19:11:33.250Z,19.00
2023-05-07T19:14:02.290Z,19.00
2023-05-07T19:16:30.634Z,19.10
2023-05-07T19:18:57.454Z,19.00
2023-05-07T19:21:25.392Z,19.00
2023-05-07T19:23:53.671Z,19.00
2023-05-07T19:26:21.133Z,19.00
2023-05-07T19:28:56.393Z,18.90
2023-05-07T19:31:28.669Z,18.80
2023-05-07T19:33:55.585Z,18.70
2023-05-07T19:36:22.321Z,18.80
2023-05-07T19:38:49.956Z,18.70
2023-05-07T19:41:16.665Z,18.70
2023-05-07T19:43:43.451Z,18.70
2023-05-07T19:46:10.439Z,18.70
2023-05-07T19:48:37.235Z,18.70
2023-05-07T19:51:04.040Z,18.70
2023-05-07T19:53:30.906Z,18.60
2023-05-07T19:56:09.339Z,18.60
2023-05-07T19:58:37.420Z,18.60
2023-05-07T20:01:06.098Z,18.50
2023-05-07T20:03:34.313Z,18.50
2023-05-07T20:06:03.094Z,18.50
2023-05-07T20:08:30.038Z,18.40
2023-05-07T20:10:59.516Z,18.40
2023-05-07T20:13:27.547Z,18.40
2023-05-07T20:16:02.081Z,18.40
2023-05-07T20:18:29.764Z,18.30
2023-05-07T20:20:57.002Z,18.30
2023-05-07T20:23:24.118Z,18.30
2023-05-07T20:25:51.306Z,18.10
2023-05-07T20:28:18.420Z,18.20
2023-05-07T20:30:45.248Z,18.10
2023-05-07T20:33:12.877Z,18.10
2023-05-07T20:35:40.182Z,18.10
2023-05-07T20:38:07.014Z,18.10
2023-05-07T20:40:34.433Z,18.10
2023-05-07T20:43:02.135Z,18.10
2023-05-07T20:45:28.919Z,18.10
2023-05-07T20:47:55.822Z,18.00
2023-05-07T20:50:26.821Z,18.00
2023-05-07T20:52:53.753Z,18.00
2023-05-07T20:55:20.484Z,17.90
2023-05-07T20:57:47.402Z,18.00
2023-05-07T21:00:15.749Z,17.90
2023-05-07T21:02:44.170Z,17.70
2023-05-07T21:05:11.173Z,17.80
2023-05-07T21:07:37.909Z,17.70
2023-05-07T21:10:06.140Z,17.60
2023-05-07T21:12:32.956Z,17.60
2023-05-07T21:14:59.679Z,17.60
2023-05-07T21:17:28.908Z,17.60
2023-05-07T21:19:55.816Z,17.60
2023-05-07T21:22:22.631Z,17.60
2023-05-07T21:24:49.428Z,17.60
2023-05-07T21:27:16.227Z,17.50
2023-05-07T21:29:43.043Z,17.60
2023-05-07T21:32:09.767Z,17.50
2023-05-07T21:34:36.507Z,17.60
2023-05-07T21:37:04.151Z,17.40
2023-05-07T21:39:30.924Z,17.40
2023-05-07T21:41:57.628Z,17.40
2023-05-07T21:44:24.362Z,17.30
2023-05-07T21:46:51.303Z,17.20
2023-05-07T21:49:21.456Z,17.20
2023-05-07T21:51:48.206Z,17.10
2023-05-07T21:54:15.751Z,17.20
2023-05-07T21:56:42.640Z,17.10
2023-05-07T21:59:10.501Z,17.10
2023-05-07T22:01:37.272Z,17.00
2023-05-07T22:04:04.659Z,17.10
2023-05-07T22:06:31.748Z,17.10
2023-05-07T22:08:58.436Z,17.10
2023-05-07T22:11:26.175Z,17.20
2023-05-07T22:13:52.872Z,17.00
2023-05-07T22:16:19.664Z,16.90
2023-05-07T22:18:49.396Z,17.00
2023-05-07T22:21:16.408Z,17.00
2023-05-07T22:23:43.208Z,17.00
2023-05-07T22:26:13.378Z,17.00
2023-05-07T22:28:40.793Z,17.00
2023-05-07T22:31:07.627Z,17.00
2023-05-07T22:33:35.445Z,16.90
2023-05-07T22:36:02.460Z,16.90
2023-05-07T22:38:29.247Z,17.00
2023-05-07T22:40:58.854Z,16.90
2023-05-07T22:43:25.817Z,16.80
2023-05-07T22:46:03.026Z,16.80
2023-05-07T22:48:30.307Z,16.80
2023-05-07T22:50:57.032Z,16.70
2023-05-07T22:53:24.172Z,16.70
2023-05-07T22:55:51.572Z,16.70
2023-05-07T22:58:18.313Z,16.70
2023-05-07T23:00:45.226Z,16.60
2023-05-07T23:03:12.074Z,16.60
2023-05-07T23:05:38.813Z,16.60
2023-05-07T23:08:05.923Z,16.50
2023-05-07T23:10:34.483Z,16.50
2023-05-07T23:13:01.765Z,16.40
2023-05-07T23:15:28.592Z,16.40
2023-05-07T23:17:55.577Z,16.50
2023-05-07T23:20:22.918Z,16.50
2023-05-07T23:22:49.675Z,16.40
2023-05-07T23:25:17.995Z,16.40
2023-05-07T23:27:44.763Z,16.40
2023-05-07T23:30:12.874Z,16.40
2023-05-07T23:32:39.823Z,16.30
2023-05-07T23:35:08.115Z,16.30
2023-05-07T23:37:35.066Z,16.20
2023-05-07T23:40:03.551Z,16.20
2023-05-07T23:42:32.851Z,16.10
2023-05-07T23:44:59.569Z,16.20
2023-05-07T23:47:26.350Z,16.10
2023-05-07T23:49:53.159Z,16.10
2023-05-07T23:52:20.291Z,16.10
2023-05-07T23:54:47.002Z,16.00
2023-05-07T23:57:14.400Z,16.00
2023-05-07T23:59:41.810Z,15.90
